sensor_id;sensor_type;location;lat;lon;timestamp;pressure;altitude;pressure_sealevel;temperature;humidity
75656;BME280;64252;51.094;13.714;2023-07-31T11:02:24;99828.59;;;29.60;nan
75656;BME280;64252;51.094;13.714;2023-07-31T11:05:09;99832.59;;;29.52;nan
75656;BME280;64252;51.094;13.714;2023-07-31T11:07:50;99818.56;;;29.50;nan
75656;BME280;64252;51.094;13.714;2023-07-31T11:10:20;99816.63;;;29.70;nan
75656;BME280;64252;51.094;13.714;2023-07-31T11:12:48;99818.16;;;28.85;nan
75656;BME280;64252;51.094;13.714;2023-07-31T11:15:14;99818.88;;;29.30;nan
75656;BME280;64252;51.094;13.714;2023-07-31T11:17:39;99813.88;;;28.25;nan
75656;BME280;64252;51.094;13.714;2023-07-31T11:20:06;99819.19;;;28.49;nan
75656;BME280;64252;51.094;13.714;2023-07-31T11:22:34;99811.53;;;28.73;nan
75656;BME280;64252;51.094;13.714;2023-07-31T11:25:03;99813.63;;;28.56;nan
75656;BME280;64252;51.094;13.714;2023-07-31T11:27:29;99813.88;;;28.25;nan
75656;BME280;64252;51.094;13.714;2023-07-31T11:30:00;99810.44;;;28.60;nan
75656;BME280;64252;51.094;13.714;2023-07-31T11:32:27;99812.84;;;28.39;nan
75656;BME280;64252;51.094;13.714;2023-07-31T11:34:53;99816.22;;;29.21;nan
75656;BME280;64252;51.094;13.714;2023-07-31T11:37:19;99812.50;;;29.26;nan
75656;BME280;64252;51.094;13.714;2023-07-31T11:39:59;99806.72;;;29.15;nan
75656;BME280;64252;51.094;13.714;2023-07-31T11:42:25;99800.41;;;29.91;nan
75656;BME280;64252;51.094;13.714;2023-07-31T11:44:50;99806.72;;;30.00;nan
75656;BME280;64252;51.094;13.714;2023-07-31T11:47:16;99786.59;;;30.02;nan
75656;BME280;64252;51.094;13.714;2023-07-31T11:49:43;99787.56;;;29.58;nan
75656;BME280;64252;51.094;13.714;2023-07-31T11:52:08;99785.31;;;30.69;nan
75656;BME280;64252;51.094;13.714;2023-07-31T11:54:34;99781.31;;;30.36;nan
75656;BME280;64252;51.094;13.714;2023-07-31T11:57:00;99775.44;;;31.07;nan
75656;BME280;64252;51.094;13.714;2023-07-31T11:59:27;99775.50;;;30.96;nan
75656;BME280;64252;51.094;13.714;2023-07-31T12:01:53;99768.09;;;31.68;nan
75656;BME280;64252;51.094;13.714;2023-07-31T12:04:19;99767.25;;;31.73;nan
75656;BME280;64252;51.094;13.714;2023-07-31T12:06:47;99764.72;;;31.64;nan
75656;BME280;64252;51.094;13.714;2023-07-31T12:09:14;99756.19;;;31.66;nan
75656;BME280;64252;51.094;13.714;2023-07-31T12:11:47;99760.94;;;31.69;nan
75656;BME280;64252;51.094;13.714;2023-07-31T12:14:29;99757.44;;;32.27;nan
75656;BME280;64252;51.094;13.714;2023-07-31T12:16:56;99756.16;;;32.41;nan
75656;BME280;64252;51.094;13.714;2023-07-31T12:22:26;99749.38;;;32.33;nan
75656;BME280;64252;51.094;13.714;2023-07-31T12:24:54;99739.81;;;32.32;nan
75656;BME280;64252;51.094;13.714;2023-07-31T12:27:19;99734.38;;;32.23;nan
75656;BME280;64252;51.094;13.714;2023-07-31T12:29:47;99733.81;;;30.77;nan
75656;BME280;64252;51.094;13.714;2023-07-31T12:32:20;99727.84;;;30.93;nan
75656;BME280;64252;51.094;13.714;2023-07-31T12:34:46;99723.63;;;31.37;nan
75656;BME280;64252;51.094;13.714;2023-07-31T12:37:12;99715.88;;;31.21;nan
75656;BME280;64252;51.094;13.714;2023-07-31T12:39:37;99715.75;;;32.07;nan
75656;BME280;64252;51.094;13.714;2023-07-31T12:42:03;99709.25;;;32.65;nan
75656;BME280;64252;51.094;13.714;2023-07-31T12:44:29;99699.09;;;31.03;nan
75656;BME280;64252;51.094;13.714;2023-07-31T12:46:54;99697.72;;;31.71;nan
75656;BME280;64252;51.094;13.714;2023-07-31T12:49:20;99705.19;;;31.86;nan
75656;BME280;64252;51.094;13.714;2023-07-31T12:51:45;99697.94;;;31.55;nan
75656;BME280;64252;51.094;13.714;2023-07-31T12:54:11;99682.44;;;30.98;nan
75656;BME280;64252;51.094;13.714;2023-07-31T12:56:36;99691.91;;;31.28;nan
75656;BME280;64252;51.094;13.714;2023-07-31T12:59:02;99682.97;;;31.64;nan
75656;BME280;64252;51.094;13.714;2023-07-31T13:01:28;99683.69;;;32.20;nan
75656;BME280;64252;51.094;13.714;2023-07-31T13:03:54;99680.13;;;32.09;nan
75656;BME280;64252;51.094;13.714;2023-07-31T13:06:20;99673.81;;;31.73;nan
75656;BME280;64252;51.094;13.714;2023-07-31T13:08:45;99670.03;;;30.92;nan
75656;BME280;64252;51.094;13.714;2023-07-31T13:11:11;99671.38;;;32.09;nan
75656;BME280;64252;51.094;13.714;2023-07-31T13:13:36;99680.53;;;32.18;nan
75656;BME280;64252;51.094;13.714;2023-07-31T13:16:02;99681.84;;;31.05;nan
75656;BME280;64252;51.094;13.714;2023-07-31T13:18:27;99668.72;;;31.36;nan
75656;BME280;64252;51.094;13.714;2023-07-31T13:20:53;99676.00;;;31.05;nan
75656;BME280;64252;51.094;13.714;2023-07-31T13:23:18;99677.69;;;30.95;nan
75656;BME280;64252;51.094;13.714;2023-07-31T13:25:44;99676.41;;;31.76;nan
75656;BME280;64252;51.094;13.714;2023-07-31T13:28:09;99678.00;;;32.09;nan
75656;BME280;64252;51.094;13.714;2023-07-31T13:30:35;99662.78;;;31.42;nan
75656;BME280;64252;51.094;13.714;2023-07-31T13:33:01;99669.34;;;31.29;nan
75656;BME280;64252;51.094;13.714;2023-07-31T13:35:26;99657.22;;;31.44;nan
75656;BME280;64252;51.094;13.714;2023-07-31T13:37:52;99656.41;;;31.43;nan
75656;BME280;64252;51.094;13.714;2023-07-31T13:40:17;99654.69;;;31.72;nan
75656;BME280;64252;51.094;13.714;2023-07-31T13:42:43;99643.00;;;32.22;nan
75656;BME280;64252;51.094;13.714;2023-07-31T13:45:08;99643.78;;;31.91;nan
75656;BME280;64252;51.094;13.714;2023-07-31T13:47:34;99638.66;;;32.29;nan
75656;BME280;64252;51.094;13.714;2023-07-31T13:50:02;99645.63;;;30.46;nan
75656;BME280;64252;51.094;13.714;2023-07-31T13:52:28;99635.81;;;30.74;nan
75656;BME280;64252;51.094;13.714;2023-07-31T13:54:53;99636.31;;;31.77;nan
75656;BME280;64252;51.094;13.714;2023-07-31T13:57:19;99634.44;;;31.93;nan
75656;BME280;64252;51.094;13.714;2023-07-31T13:59:44;99626.69;;;30.83;nan
75656;BME280;64252;51.094;13.714;2023-07-31T14:02:11;99617.16;;;31.25;nan
75656;BME280;64252;51.094;13.714;2023-07-31T14:04:36;99629.13;;;31.41;nan
75656;BME280;64252;51.094;13.714;2023-07-31T14:07:02;99621.56;;;30.89;nan
75656;BME280;64252;51.094;13.714;2023-07-31T14:09:29;99609.72;;;31.24;nan
75656;BME280;64252;51.094;13.714;2023-07-31T14:11:55;99604.44;;;30.80;nan
75656;BME280;64252;51.094;13.714;2023-07-31T14:14:21;99609.88;;;31.13;nan
75656;BME280;64252;51.094;13.714;2023-07-31T14:16:46;99604.69;;;31.62;nan
75656;BME280;64252;51.094;13.714;2023-07-31T14:19:12;99600.03;;;31.54;nan
75656;BME280;64252;51.094;13.714;2023-07-31T14:21:37;99606.81;;;31.24;nan
75656;BME280;64252;51.094;13.714;2023-07-31T14:24:03;99607.75;;;31.51;nan
75656;BME280;64252;51.094;13.714;2023-07-31T14:26:28;99611.72;;;30.92;nan
75656;BME280;64252;51.094;13.714;2023-07-31T14:28:54;99612.78;;;31.13;nan
75656;BME280;64252;51.094;13.714;2023-07-31T14:31:19;99609.44;;;30.61;nan
75656;BME280;64252;51.094;13.714;2023-07-31T14:33:45;99599.63;;;31.63;nan
75656;BME280;64252;51.094;13.714;2023-07-31T14:36:11;99600.91;;;31.67;nan
75656;BME280;64252;51.094;13.714;2023-07-31T14:38:36;99597.00;;;31.22;nan
75656;BME280;64252;51.094;13.714;2023-07-31T14:41:02;99597.03;;;31.41;nan
75656;BME280;64252;51.094;13.714;2023-07-31T14:43:27;99591.44;;;32.25;nan
75656;BME280;64252;51.094;13.714;2023-07-31T14:45:53;99581.28;;;31.81;nan
75656;BME280;64252;51.094;13.714;2023-07-31T14:48:21;99580.56;;;31.06;nan
75656;BME280;64252;51.094;13.714;2023-07-31T14:50:46;99567.09;;;30.78;nan
75656;BME280;64252;51.094;13.714;2023-07-31T14:53:12;99576.63;;;31.59;nan
75656;BME280;64252;51.094;13.714;2023-07-31T14:55:37;99584.44;;;31.83;nan
